createdAt,value
2018-03-26T00:00:28.426Z,11.89
2018-03-26T00:02:57.336Z,11.89
2018-03-26T00:05:26.216Z,11.89
2018-03-26T00:07:55.099Z,11.92
2018-03-26T00:10:24.251Z,11.89
2018-03-26T00:12:53.240Z,11.86
2018-03-26T00:15:22.121Z,11.88
2018-03-26T00:17:51.042Z,11.84
2018-03-26T00:20:23.279Z,11.84
2018-03-26T00:22:52.435Z,11.86
2018-03-26T00:25:21.472Z,11.84
2018-03-26T00:27:50.505Z,11.76
2018-03-26T00:30:19.362Z,11.76
2018-03-26T00:32:48.734Z,11.73
2018-03-26T00:35:17.602Z,11.75
2018-03-26T00:37:46.462Z,11.74
2018-03-26T00:40:15.828Z,11.74
2018-03-26T00:42:44.750Z,11.68
2018-03-26T00:45:13.603Z,11.68
2018-03-26T00:47:42.776Z,11.69
2018-03-26T00:50:11.663Z,11.66
2018-03-26T00:52:40.546Z,11.61
2018-03-26T00:55:09.956Z,11.63
2018-03-26T00:57:38.903Z,11.62
2018-03-26T01:00:08.124Z,11.56
2018-03-26T01:02:37.477Z,11.56
2018-03-26T01:05:06.344Z,11.56
2018-03-26T01:07:35.263Z,11.58
2018-03-26T01:10:05.409Z,11.63
2018-03-26T01:12:34.819Z,11.61
2018-03-26T01:15:04.198Z,11.62
2018-03-26T01:17:33.367Z,11.64
2018-03-26T01:20:03.186Z,11.62
2018-03-26T01:22:32.140Z,11.56
2018-03-26T01:25:01.655Z,11.57
2018-03-26T01:27:30.528Z,11.59
2018-03-26T01:29:59.409Z,11.60
2018-03-26T01:32:28.318Z,11.62
2018-03-26T01:34:57.171Z,11.60
2018-03-26T01:37:26.295Z,11.60
2018-03-26T01:39:55.157Z,11.55
2018-03-26T01:42:24.241Z,11.58
2018-03-26T01:44:53.403Z,11.58
2018-03-26T01:47:22.296Z,11.57
2018-03-26T01:49:51.319Z,11.56
2018-03-26T01:52:20.463Z,11.57
2018-03-26T01:54:49.339Z,11.58
2018-03-26T01:57:18.506Z,11.58
2018-03-26T01:59:47.660Z,11.54
2018-03-26T02:02:16.968Z,11.52
2018-03-26T02:04:45.853Z,11.49
2018-03-26T02:07:15.019Z,11.48
2018-03-26T02:09:43.843Z,11.48
2018-03-26T02:12:12.704Z,11.48
2018-03-26T02:14:41.626Z,11.44
2018-03-26T02:17:10.632Z,11.43
2018-03-26T02:19:39.796Z,11.41
2018-03-26T02:22:08.673Z,11.45
2018-03-26T02:24:37.645Z,11.45
2018-03-26T02:27:06.797Z,11.45
2018-03-26T02:29:35.651Z,11.43
2018-03-26T02:32:05.288Z,11.44
2018-03-26T02:34:34.427Z,11.44
2018-03-26T02:37:03.365Z,11.41
2018-03-26T02:39:32.243Z,11.43
2018-03-26T02:42:02.289Z,11.42
2018-03-26T02:44:31.189Z,11.43
2018-03-26T02:47:00.030Z,11.41
2018-03-26T02:49:29.170Z,11.36
2018-03-26T02:51:58.064Z,11.38
2018-03-26T02:54:26.910Z,11.39
2018-03-26T02:56:56.182Z,11.38
2018-03-26T02:59:25.013Z,11.39
2018-03-26T03:01:54.176Z,11.37
2018-03-26T03:04:23.035Z,11.39
2018-03-26T03:06:51.858Z,11.36
2018-03-26T03:09:21.291Z,11.33
2018-03-26T03:11:50.150Z,11.37
2018-03-26T03:14:19.048Z,11.37
2018-03-26T03:16:48.209Z,11.37
2018-03-26T03:19:17.115Z,11.37
2018-03-26T03:21:45.993Z,11.38
2018-03-26T03:24:15.160Z,11.33
2018-03-26T03:26:44.024Z,11.26
2018-03-26T03:29:12.862Z,11.30
2018-03-26T03:31:42.198Z,11.32
2018-03-26T03:34:11.250Z,11.31
2018-03-26T03:36:40.186Z,11.28
2018-03-26T03:39:09.221Z,11.25
2018-03-26T03:41:38.065Z,11.26
2018-03-26T03:44:07.231Z,11.24
2018-03-26T03:46:36.285Z,11.26
2018-03-26T03:49:05.926Z,11.27
2018-03-26T03:51:35.081Z,11.28
2018-03-26T03:54:05.098Z,11.25
2018-03-26T03:56:33.941Z,11.25
2018-03-26T03:59:04.454Z,11.26
2018-03-26T04:01:33.323Z,11.25
2018-03-26T04:04:02.956Z,11.28
2018-03-26T04:06:32.114Z,11.24
2018-03-26T04:09:01.270Z,11.26
2018-03-26T04:11:30.134Z,11.25
2018-03-26T04:13:59.003Z,11.19
2018-03-26T04:16:27.886Z,11.16
2018-03-26T04:18:57.040Z,11.17
2018-03-26T04:21:25.926Z,11.16
2018-03-26T04:23:54.824Z,11.16
2018-03-26T04:26:23.995Z,11.14
2018-03-26T04:28:52.935Z,11.13
2018-03-26T04:31:21.786Z,11.14
2018-03-26T04:33:50.982Z,11.13
2018-03-26T04:36:20.850Z,11.12
2018-03-26T04:38:49.732Z,11.10
2018-03-26T04:41:19.201Z,11.08
2018-03-26T04:43:48.056Z,11.01
2018-03-26T04:46:16.957Z,11.03
2018-03-26T04:48:46.873Z,11.03
2018-03-26T04:51:15.726Z,10.99
2018-03-26T04:53:44.587Z,11.02
2018-03-26T04:56:13.736Z,11.00
2018-03-26T04:58:42.636Z,11.04
2018-03-26T05:01:11.660Z,10.99
2018-03-26T05:03:40.558Z,10.96
2018-03-26T05:06:09.451Z,10.97
2018-03-26T05:08:38.681Z,10.96
2018-03-26T05:11:07.745Z,10.96
2018-03-26T05:13:36.615Z,10.99
2018-03-26T05:16:07.417Z,10.99
2018-03-26T05:18:36.277Z,11.01
2018-03-26T05:21:05.812Z,11.01
2018-03-26T05:23:34.975Z,11.04
2018-03-26T05:26:04.552Z,11.03
2018-03-26T05:28:33.441Z,11.02
2018-03-26T05:31:03.401Z,11.00
2018-03-26T05:33:32.273Z,11.02
2018-03-26T05:39:32.755Z,11.03
2018-03-26T05:42:02.603Z,11.01
2018-03-26T05:44:31.511Z,10.94
2018-03-26T05:47:00.689Z,10.95
2018-03-26T05:49:29.620Z,10.95
2018-03-26T05:51:58.469Z,10.92
2018-03-26T05:54:27.990Z,10.90
2018-03-26T05:56:56.915Z,10.89
2018-03-26T05:59:25.812Z,10.87
2018-03-26T06:01:54.986Z,10.88
2018-03-26T06:04:23.857Z,10.84
2018-03-26T06:06:52.721Z,10.85
2018-03-26T06:09:24.034Z,10.84
2018-03-26T06:11:53.102Z,10.85
2018-03-26T06:14:22.039Z,10.88
2018-03-26T06:16:59.944Z,10.88
2018-03-26T06:19:28.882Z,10.90
2018-03-26T06:21:58.150Z,10.89
2018-03-26T06:24:27.183Z,10.91
2018-03-26T06:26:56.164Z,10.88
2018-03-26T06:29:25.381Z,10.88
2018-03-26T06:31:54.356Z,10.88
2018-03-26T06:34:23.303Z,10.89
2018-03-26T06:36:52.690Z,10.88
2018-03-26T06:39:21.667Z,10.91
2018-03-26T06:41:50.594Z,10.91
2018-03-26T06:44:19.817Z,10.87
2018-03-26T06:46:48.679Z,10.92
2018-03-26T06:49:17.605Z,10.86
2018-03-26T06:51:46.831Z,10.85
2018-03-26T06:54:15.715Z,10.86
2018-03-26T06:56:44.747Z,10.88
2018-03-26T06:59:15.884Z,10.90
2018-03-26T07:01:44.933Z,10.90
2018-03-26T07:04:13.839Z,10.91
2018-03-26T07:06:43.320Z,10.93
2018-03-26T07:09:12.198Z,10.94
2018-03-26T07:11:41.112Z,10.95
2018-03-26T07:14:10.506Z,10.95
2018-03-26T07:16:39.408Z,10.98
2018-03-26T07:19:08.440Z,11.02
2018-03-26T07:21:38.235Z,11.05
2018-03-26T07:24:08.595Z,11.03
2018-03-26T07:26:37.518Z,11.05
2018-03-26T07:29:06.881Z,11.10
2018-03-26T07:31:35.828Z,11.12
2018-03-26T07:34:05.485Z,11.18
2018-03-26T07:36:34.618Z,11.22
2018-03-26T07:39:03.899Z,11.25
2018-03-26T07:41:32.810Z,11.29
2018-03-26T07:44:02.462Z,11.38
2018-03-26T07:46:31.457Z,11.41
2018-03-26T07:49:00.378Z,11.49
2018-03-26T07:51:29.585Z,11.58
2018-03-26T07:53:58.505Z,11.64
2018-03-26T07:56:27.363Z,11.72
2018-03-26T07:58:56.563Z,11.77
2018-03-26T08:01:25.421Z,11.79
2018-03-26T08:03:54.418Z,11.87
2018-03-26T08:06:23.660Z,11.87
2018-03-26T08:08:52.575Z,11.91
2018-03-26T08:11:21.864Z,11.94
2018-03-26T08:13:50.848Z,11.92
2018-03-26T08:16:19.871Z,11.97
2018-03-26T08:18:49.112Z,11.96
2018-03-26T08:21:17.996Z,12.02
2018-03-26T08:23:46.948Z,12.04
2018-03-26T08:26:16.645Z,12.06
2018-03-26T08:28:45.579Z,12.09
2018-03-26T08:31:14.664Z,12.12
2018-03-26T08:33:43.875Z,12.10
2018-03-26T08:36:12.799Z,12.08
2018-03-26T08:38:41.736Z,12.08
2018-03-26T08:41:11.090Z,12.06
2018-03-26T08:43:39.996Z,12.10
2018-03-26T08:46:09.151Z,12.12
2018-03-26T08:48:38.257Z,12.13
2018-03-26T08:51:07.342Z,12.14
2018-03-26T08:53:36.761Z,12.05
2018-03-26T08:56:05.839Z,12.09
2018-03-26T08:58:34.798Z,12.11
2018-03-26T09:01:04.237Z,12.13
2018-03-26T09:03:33.206Z,12.12
2018-03-26T09:06:05.436Z,12.14
2018-03-26T09:08:34.638Z,12.08
2018-03-26T09:11:04.787Z,12.00
2018-03-26T09:13:34.142Z,12.01
2018-03-26T09:16:04.139Z,11.96
2018-03-26T09:18:33.046Z,11.92
2018-03-26T09:21:02.197Z,11.93
2018-03-26T09:23:31.424Z,11.94
2018-03-26T09:26:00.445Z,11.94
2018-03-26T09:28:29.360Z,11.95
2018-03-26T09:30:58.298Z,11.93
2018-03-26T09:33:27.520Z,11.94
2018-03-26T09:35:57.715Z,11.96
2018-03-26T09:38:26.619Z,11.96
2018-03-26T09:40:55.854Z,11.95
2018-03-26T09:43:25.044Z,11.99
2018-03-26T09:45:54.047Z,11.98
2018-03-26T09:48:22.919Z,12.02
2018-03-26T09:50:52.116Z,12.03
2018-03-26T09:53:21.072Z,12.00
2018-03-26T09:55:50.610Z,12.02
2018-03-26T09:58:20.502Z,12.01
2018-03-26T10:00:49.451Z,12.00
2018-03-26T10:03:18.317Z,12.01
2018-03-26T10:05:47.489Z,11.99
2018-03-26T10:08:16.417Z,12.03
2018-03-26T10:10:45.384Z,12.03
2018-03-26T10:13:14.795Z,11.95
2018-03-26T10:15:43.670Z,11.91
2018-03-26T10:18:12.828Z,11.92
2018-03-26T10:20:41.718Z,11.92
2018-03-26T10:23:10.948Z,11.89
2018-03-26T10:25:40.142Z,11.92
2018-03-26T10:28:09.048Z,11.98
2018-03-26T10:30:37.904Z,12.01
2018-03-26T10:33:07.060Z,12.01
2018-03-26T10:35:36.403Z,12.01
2018-03-26T10:38:06.495Z,11.96
2018-03-26T10:40:35.679Z,11.98
2018-03-26T10:43:05.324Z,12.00
2018-03-26T10:45:34.297Z,12.04
2018-03-26T10:48:05.495Z,12.10
2018-03-26T10:50:34.514Z,12.11
2018-03-26T10:53:03.567Z,12.13
2018-03-26T10:55:32.452Z,12.16
2018-03-26T10:58:03.229Z,12.19
2018-03-26T11:00:32.498Z,12.13
2018-03-26T11:03:01.898Z,12.10
2018-03-26T11:05:30.775Z,12.14
2018-03-26T11:08:00.156Z,12.11
2018-03-26T11:10:29.096Z,12.14
2018-03-26T11:12:58.090Z,12.19
2018-03-26T11:15:27.367Z,12.14
2018-03-26T11:17:56.411Z,12.20
2018-03-26T11:20:25.481Z,12.21
2018-03-26T11:22:56.361Z,12.27
2018-03-26T11:25:25.412Z,12.35
2018-03-26T11:27:54.409Z,12.28
2018-03-26T11:30:23.827Z,12.32
2018-03-26T11:32:53.852Z,12.46
2018-03-26T11:35:22.800Z,12.49
2018-03-26T11:37:52.104Z,12.49
2018-03-26T11:40:21.102Z,12.47
2018-03-26T11:42:50.451Z,12.53
2018-03-26T11:45:19.459Z,12.61
2018-03-26T11:47:48.502Z,12.65
2018-03-26T11:50:17.672Z,12.67
2018-03-26T11:52:46.596Z,12.73
2018-03-26T11:55:15.701Z,12.64
2018-03-26T11:57:45.093Z,12.71
2018-03-26T12:00:14.514Z,12.73
2018-03-26T12:02:43.772Z,12.74
2018-03-26T12:05:13.167Z,12.74
2018-03-26T12:07:42.302Z,12.73
2018-03-26T12:10:11.545Z,12.69
2018-03-26T12:12:40.846Z,12.78
2018-03-26T12:15:10.404Z,12.84
2018-03-26T12:17:39.351Z,12.88
2018-03-26T12:20:18.332Z,12.92
2018-03-26T12:22:47.700Z,12.90
2018-03-26T12:25:17.608Z,12.94
2018-03-26T12:27:55.291Z,12.93
2018-03-26T12:30:24.434Z,12.99
2018-03-26T12:32:53.442Z,12.96
2018-03-26T12:35:33.278Z,12.96
2018-03-26T12:38:04.162Z,12.85
2018-03-26T12:40:53.558Z,12.84
2018-03-26T12:43:22.846Z,12.83
2018-03-26T12:46:04.564Z,12.81
2018-03-26T12:48:33.833Z,12.74
2018-03-26T12:53:20.568Z,12.85
2018-03-26T12:55:50.651Z,12.83
2018-03-26T12:58:44.205Z,12.88
2018-03-26T13:03:24.300Z,12.92
2018-03-26T13:05:53.459Z,13.08
2018-03-26T13:08:22.788Z,13.09
2018-03-26T13:10:52.678Z,13.11
2018-03-26T13:13:21.697Z,13.18
2018-03-26T13:15:50.713Z,13.40
2018-03-26T13:18:19.776Z,13.64
2018-03-26T13:20:48.780Z,13.75
2018-03-26T13:23:18.664Z,13.77
2018-03-26T13:25:47.684Z,13.86
2018-03-26T13:28:16.698Z,14.06
2018-03-26T13:30:45.719Z,14.45
2018-03-26T13:33:15.278Z,15.23
2018-03-26T13:35:44.611Z,16.29
2018-03-26T13:38:13.608Z,17.47
2018-03-26T13:40:42.550Z,18.83
2018-03-26T13:43:14.009Z,19.71
2018-03-26T13:45:42.970Z,20.48
2018-03-26T13:48:12.125Z,21.17
2018-03-26T13:50:41.597Z,21.35
2018-03-26T13:53:12.318Z,21.42
2018-03-26T13:55:41.414Z,21.48
2018-03-26T13:58:10.418Z,22.25
2018-03-26T14:00:39.373Z,22.88
2018-03-26T14:03:08.357Z,23.28
2018-03-26T14:05:37.805Z,23.48
2018-03-26T14:08:07.724Z,24.15
2018-03-26T14:14:20.878Z,24.78
2018-03-26T14:17:53.996Z,24.84
2018-03-26T14:20:23.397Z,25.04
2018-03-26T14:22:52.354Z,25.07
2018-03-26T14:25:21.373Z,25.33
2018-03-26T14:27:50.815Z,24.71
2018-03-26T14:30:20.184Z,25.08
2018-03-26T14:32:49.265Z,25.08
2018-03-26T14:35:38.371Z,25.08
2018-03-26T14:38:07.468Z,24.89
2018-03-26T14:40:36.846Z,24.72
2018-03-26T14:43:06.027Z,23.85
2018-03-26T14:45:35.152Z,24.14
2018-03-26T14:48:06.001Z,24.40
2018-03-26T14:50:35.894Z,24.74
2018-03-26T14:53:05.387Z,24.64
2018-03-26T14:55:35.466Z,24.86
2018-03-26T14:58:05.640Z,24.92
2018-03-26T15:00:34.821Z,24.29
2018-03-26T15:03:05.819Z,24.37
2018-03-26T15:05:34.829Z,24.19
2018-03-26T15:08:05.963Z,24.55
2018-03-26T15:10:35.714Z,24.25
2018-03-26T15:13:06.362Z,24.12
2018-03-26T15:15:36.509Z,24.13
2018-03-26T15:18:07.777Z,24.06
2018-03-26T15:20:37.315Z,23.39
2018-03-26T15:23:06.928Z,22.53
2018-03-26T15:25:36.275Z,22.39
2018-03-26T15:28:06.737Z,21.94
2018-03-26T15:30:35.799Z,21.24
2018-03-26T15:33:06.113Z,20.64
2018-03-26T15:35:35.216Z,20.30
2018-03-26T15:38:05.546Z,20.51
2018-03-26T15:40:36.386Z,20.71
2018-03-26T15:43:05.520Z,20.45
2018-03-26T15:45:34.590Z,19.86
2018-03-26T15:48:05.427Z,19.10
2018-03-26T15:50:34.592Z,18.59
2018-03-26T15:53:04.028Z,18.10
2018-03-26T15:55:33.420Z,17.75
2018-03-26T15:58:03.217Z,17.68
2018-03-26T16:00:32.382Z,17.50
2018-03-26T16:03:05.948Z,17.34
2018-03-26T16:05:35.007Z,17.25
2018-03-26T16:08:05.000Z,17.25
2018-03-26T16:10:34.233Z,16.99
2018-03-26T16:13:03.437Z,16.82
2018-03-26T16:15:32.458Z,16.73
2018-03-26T16:18:04.871Z,16.51
2018-03-26T16:20:34.055Z,16.45
2018-03-26T16:23:03.934Z,16.26
2018-03-26T16:25:33.299Z,16.06
2018-03-26T16:28:04.690Z,15.92
2018-03-26T16:30:33.756Z,15.76
2018-03-26T16:33:04.497Z,15.56
2018-03-26T16:35:33.536Z,15.48
2018-03-26T16:38:05.169Z,15.39
2018-03-26T16:40:34.802Z,15.22
2018-03-26T16:43:06.102Z,15.12
2018-03-26T16:45:35.278Z,14.88
2018-03-26T16:48:06.882Z,14.79
2018-03-26T16:50:35.935Z,14.71
2018-03-26T16:53:05.832Z,14.56
2018-03-26T16:55:35.316Z,14.34
2018-03-26T16:58:05.430Z,14.30
2018-03-26T17:00:34.431Z,14.19
2018-03-26T17:03:06.911Z,14.07
2018-03-26T17:05:36.115Z,14.05
2018-03-26T17:08:06.071Z,13.95
2018-03-26T17:10:35.588Z,13.92
2018-03-26T17:13:04.934Z,13.82
2018-03-26T17:15:34.114Z,13.79
2018-03-26T17:18:04.469Z,13.75
2018-03-26T17:20:33.646Z,13.73
2018-03-26T17:23:03.360Z,13.71
2018-03-26T17:25:32.854Z,13.63
2018-03-26T17:30:32.788Z,13.43
2018-03-26T17:33:03.046Z,13.29
2018-03-26T17:35:32.588Z,13.25
2018-03-26T17:38:02.855Z,13.09
2018-03-26T17:40:32.174Z,12.95
2018-03-26T17:43:01.331Z,12.94
2018-03-26T17:45:30.433Z,12.88
2018-03-26T17:47:59.411Z,12.67
2018-03-26T17:50:28.307Z,12.65
2018-03-26T17:52:57.344Z,12.60
2018-03-26T17:55:26.631Z,12.41
2018-03-26T17:57:55.597Z,12.26
2018-03-26T18:00:24.556Z,12.25
2018-03-26T18:02:53.864Z,12.29
2018-03-26T18:05:23.000Z,12.36
2018-03-26T18:07:52.020Z,12.36
2018-03-26T18:10:21.100Z,12.36
2018-03-26T18:12:50.107Z,12.34
2018-03-26T18:15:19.320Z,12.26
2018-03-26T18:17:48.319Z,12.12
2018-03-26T18:20:17.368Z,12.00
2018-03-26T18:22:46.497Z,11.87
2018-03-26T18:25:15.465Z,11.85
2018-03-26T18:27:44.406Z,11.75
2018-03-26T18:30:13.677Z,11.84
2018-03-26T18:32:42.607Z,11.84
2018-03-26T18:35:11.625Z,11.90
2018-03-26T18:37:40.901Z,12.00
2018-03-26T18:40:10.117Z,12.07
2018-03-26T18:42:39.328Z,12.12
2018-03-26T18:45:08.572Z,12.18
2018-03-26T18:47:38.152Z,12.27
2018-03-26T18:50:07.175Z,12.12
2018-03-26T18:52:36.168Z,12.01
2018-03-26T18:55:05.420Z,11.95
2018-03-26T18:57:34.352Z,11.95
2018-03-26T19:00:06.529Z,11.88
2018-03-26T19:03:05.728Z,11.81
2018-03-26T19:05:35.134Z,11.87
2018-03-26T19:08:06.260Z,11.90
2018-03-26T19:10:35.468Z,11.99
2018-03-26T19:13:04.969Z,12.07
2018-03-26T19:15:33.943Z,12.13
2018-03-26T19:18:04.269Z,12.16
2018-03-26T19:20:33.354Z,12.22
2018-03-26T19:23:02.976Z,12.24
2018-03-26T19:25:32.065Z,12.33
2018-03-26T19:28:01.263Z,12.32
2018-03-26T19:30:30.318Z,12.33
2018-03-26T19:32:59.350Z,12.32
2018-03-26T19:35:28.366Z,12.34
2018-03-26T19:37:58.419Z,12.33
2018-03-26T19:40:27.741Z,12.34
2018-03-26T19:42:56.781Z,12.35
2018-03-26T19:45:25.965Z,12.35
2018-03-26T19:47:55.555Z,12.31
2018-03-26T19:50:24.455Z,12.28
2018-03-26T19:52:53.538Z,12.28
2018-03-26T19:55:23.118Z,12.25
2018-03-26T19:57:52.067Z,12.25
2018-03-26T20:00:20.984Z,12.24
2018-03-26T20:02:49.999Z,12.21
2018-03-26T20:05:18.962Z,12.18
2018-03-26T20:07:47.890Z,12.13
2018-03-26T20:10:17.210Z,12.09
2018-03-26T20:12:46.233Z,12.04
2018-03-26T20:15:15.236Z,12.02
2018-03-26T20:17:44.199Z,11.97
2018-03-26T20:20:13.245Z,11.94
2018-03-26T20:22:42.547Z,11.92
2018-03-26T20:25:12.248Z,11.88
2018-03-26T20:27:41.304Z,11.84
2018-03-26T20:30:10.732Z,11.80
2018-03-26T20:32:39.742Z,11.77
2018-03-26T20:35:08.974Z,11.74
2018-03-26T20:37:38.319Z,11.74
2018-03-26T20:40:07.706Z,11.65
2018-03-26T20:42:37.085Z,11.62
2018-03-26T20:45:06.150Z,11.60
2018-03-26T20:47:35.189Z,11.59
2018-03-26T20:50:05.148Z,11.58
2018-03-26T20:52:34.192Z,11.61
2018-03-26T20:55:04.471Z,11.60
2018-03-26T20:57:34.772Z,11.58
2018-03-26T21:00:05.176Z,11.56
2018-03-26T21:02:34.237Z,11.52
2018-03-26T21:05:03.876Z,11.51
2018-03-26T21:07:32.837Z,11.50
2018-03-26T21:10:02.008Z,11.52
2018-03-26T21:12:32.779Z,11.51
2018-03-26T21:15:02.039Z,11.51
2018-03-26T21:17:31.146Z,11.51
2018-03-26T21:20:00.583Z,11.52
2018-03-26T21:22:29.544Z,11.52
2018-03-26T21:24:58.643Z,11.48
2018-03-26T21:27:27.649Z,11.43
2018-03-26T21:29:56.678Z,11.26
2018-03-26T21:32:26.075Z,11.19
2018-03-26T21:34:55.254Z,11.09
2018-03-26T21:37:24.385Z,11.04
2018-03-26T21:39:54.985Z,11.08
2018-03-26T21:42:24.024Z,11.06
2018-03-26T21:44:52.981Z,11.05
2018-03-26T21:47:22.267Z,11.00
2018-03-26T21:49:51.293Z,10.87
2018-03-26T21:52:20.660Z,10.76
2018-03-26T21:54:49.966Z,10.72
2018-03-26T21:57:18.975Z,10.60
2018-03-26T21:59:47.848Z,10.50
2018-03-26T22:02:17.105Z,10.46
2018-03-26T22:04:46.150Z,10.45
2018-03-26T22:07:15.119Z,10.47
2018-03-26T22:09:44.128Z,10.41
2018-03-26T22:12:13.207Z,10.40
2018-03-26T22:14:43.462Z,10.37
2018-03-26T22:17:13.003Z,10.39
2018-03-26T22:19:42.035Z,10.37
2018-03-26T22:22:11.416Z,10.29
2018-03-26T22:24:40.494Z,10.25
2018-03-26T22:27:09.476Z,10.20
2018-03-26T22:29:38.695Z,10.10
2018-03-26T22:32:07.723Z,10.04
2018-03-26T22:34:37.688Z,9.98
2018-03-26T22:37:07.126Z,9.96
2018-03-26T22:39:36.047Z,9.94
2018-03-26T22:42:06.236Z,9.93
2018-03-26T22:44:36.451Z,9.91
2018-03-26T22:47:06.388Z,9.91
2018-03-26T22:49:35.372Z,9.88
2018-03-26T22:52:05.451Z,9.87
2018-03-26T22:54:34.462Z,9.85
2018-03-26T22:57:06.773Z,9.83
2018-03-26T22:59:35.788Z,9.76
2018-03-26T23:02:05.627Z,9.72
2018-03-26T23:04:34.900Z,9.71
2018-03-26T23:07:04.188Z,9.68
2018-03-26T23:09:33.530Z,9.68
2018-03-26T23:12:03.543Z,9.65
2018-03-26T23:14:32.563Z,9.61
2018-03-26T23:17:01.758Z,9.62
2018-03-26T23:19:31.072Z,9.62
2018-03-26T23:21:59.996Z,9.54
2018-03-26T23:24:28.993Z,9.48
2018-03-26T23:26:58.289Z,9.44
2018-03-26T23:29:27.267Z,9.40
2018-03-26T23:31:56.276Z,9.35
2018-03-26T23:34:25.292Z,9.32
2018-03-26T23:36:54.195Z,9.28
2018-03-26T23:39:23.879Z,9.28
2018-03-26T23:41:52.787Z,9.26
2018-03-26T23:44:21.861Z,9.26
2018-03-26T23:46:51.096Z,9.26
2018-03-26T23:49:20.116Z,9.25
2018-03-26T23:51:49.052Z,9.23
2018-03-26T23:54:18.351Z,9.22
2018-03-26T23:56:47.451Z,9.22
2018-03-26T23:59:16.418Z,9.20
